Time;durP1;ratioP1;P1;durP2;ratioP2;P2;SDS_P1;SDS_P2;PMS_P1;PMS_P2;Temp;Humidity;BMP_temperature;BMP_pressure;BME280_temperature;BME280_humidity;BME280_pressure;Samples;Min_cycle;Max_cycle;Signal;HPM_P1;HPM_P2
2022/03/17 00:01:32;;;;;;;29.02;15.70;;;;;;;;;;4975565;28;20363;-85
2022/03/17 00:03:58;;;;;;;38.38;18.92;;;;;;;;;;4967140;28;20418;-85
2022/03/17 00:06:24;;;;;;;36.28;17.08;;;;;;;;;;4970326;28;20046;-85
2022/03/17 00:08:51;;;;;;;34.47;17.92;;;;;;;;;;4955198;28;20042;-84
2022/03/17 00:11:17;;;;;;;39.28;17.35;;;;;;;;;;4954454;28;20510;-84
2022/03/17 00:13:43;;;;;;;30.08;15.50;;;;;;;;;;4951326;28;20026;-84
2022/03/17 00:16:10;;;;;;;31.45;13.00;;;;;;;;;;4973167;28;20177;-85
2022/03/17 00:18:37;;;;;;;32.55;16.80;;;;;;;;;;4972072;28;20037;-85
2022/03/17 00:21:03;;;;;;;33.72;15.73;;;;;;;;;;4957739;28;20494;-85
2022/03/17 00:23:29;;;;;;;41.42;18.00;;;;;;;;;;4962124;28;20030;-85
2022/03/17 00:25:56;;;;;;;35.45;17.65;;;;;;;;;;4979643;28;20038;-85
2022/03/17 00:28:22;;;;;;;31.70;16.13;;;;;;;;;;4967947;28;20526;-85
2022/03/17 00:30:48;;;;;;;36.00;17.15;;;;;;;;;;4979025;28;20125;-85
2022/03/17 00:33:15;;;;;;;36.20;17.58;;;;;;;;;;4966410;28;20037;-84
2022/03/17 00:35:44;;;;;;;44.00;19.27;;;;;;;;;;4978775;28;20022;-85
2022/03/17 00:38:15;;;;;;;39.40;17.63;;;;;;;;;;4980459;28;20030;-85
2022/03/17 00:40:42;;;;;;;33.03;17.25;;;;;;;;;;4978815;28;20034;-85
2022/03/17 00:43:11;;;;;;;33.28;15.52;;;;;;;;;;4979735;28;20524;-85
2022/03/17 00:45:38;;;;;;;41.58;17.88;;;;;;;;;;4978857;28;20034;-85
2022/03/17 00:48:04;;;;;;;38.58;17.73;;;;;;;;;;4998761;28;20081;-85
2022/03/17 00:50:30;;;;;;;39.03;17.02;;;;;;;;;;4984468;28;20018;-84
2022/03/17 00:52:56;;;;;;;38.13;18.42;;;;;;;;;;4991139;28;20092;-85
2022/03/17 00:55:22;;;;;;;36.97;18.27;;;;;;;;;;5002063;28;20488;-84
2022/03/17 00:57:49;;;;;;;35.10;18.55;;;;;;;;;;5000706;28;20160;-85
2022/03/17 01:00:16;;;;;;;32.17;15.80;;;;;;;;;;4985494;28;20588;-84
2022/03/17 01:02:46;;;;;;;43.40;18.17;;;;;;;;;;4998909;28;20170;-85
2022/03/17 01:05:13;;;;;;;37.05;18.55;;;;;;;;;;4998102;28;20706;-85
2022/03/17 01:07:40;;;;;;;39.42;18.90;;;;;;;;;;5003055;28;20038;-84
2022/03/17 01:10:08;;;;;;;38.75;18.15;;;;;;;;;;5002201;28;20069;-85
2022/03/17 01:12:34;;;;;;;35.08;16.70;;;;;;;;;;5001822;28;20034;-84
2022/03/17 01:15:01;;;;;;;34.90;16.55;;;;;;;;;;4985175;28;20061;-85
2022/03/17 01:17:27;;;;;;;38.80;18.08;;;;;;;;;;4996851;28;20069;-84
2022/03/17 01:19:54;;;;;;;38.90;18.85;;;;;;;;;;5001327;28;20026;-84
2022/03/17 01:22:21;;;;;;;43.92;17.98;;;;;;;;;;4986279;28;20036;-84
2022/03/17 01:24:49;;;;;;;38.67;18.08;;;;;;;;;;4990074;28;20383;-84
2022/03/17 01:27:19;;;;;;;32.75;18.27;;;;;;;;;;4982711;28;20034;-84
2022/03/17 01:29:46;;;;;;;43.13;20.55;;;;;;;;;;4982779;28;20042;-84
2022/03/17 01:32:11;;;;;;;37.10;18.38;;;;;;;;;;4979806;28;20027;-84
2022/03/17 01:34:37;;;;;;;36.50;17.90;;;;;;;;;;4981392;28;20392;-84
2022/03/17 01:37:04;;;;;;;37.40;16.58;;;;;;;;;;5000703;28;20033;-84
2022/03/17 01:39:30;;;;;;;46.40;19.75;;;;;;;;;;4982590;28;20046;-83
2022/03/17 01:41:57;;;;;;;36.00;18.45;;;;;;;;;;5003526;28;20397;-84
2022/03/17 01:44:23;;;;;;;50.05;19.00;;;;;;;;;;4984047;28;20026;-83
2022/03/17 01:49:37;;;;;;;33.90;17.98;;;;;;;;;;4996943;28;20081;-84
2022/03/17 01:52:03;;;;;;;40.08;19.25;;;;;;;;;;4987465;28;20029;-84
2022/03/17 01:54:30;;;;;;;35.47;18.83;;;;;;;;;;5001812;28;20029;-84
2022/03/17 01:56:58;;;;;;;40.35;18.95;;;;;;;;;;4999190;28;20173;-84
2022/03/17 01:59:25;;;;;;;41.92;19.10;;;;;;;;;;4984613;28;20038;-83
2022/03/17 02:01:52;;;;;;;39.95;18.70;;;;;;;;;;4987684;28;20041;-83
2022/03/17 02:04:18;;;;;;;37.55;17.77;;;;;;;;;;4996546;28;20032;-84
2022/03/17 02:06:44;;;;;;;36.13;19.08;;;;;;;;;;4983508;28;20046;-84
2022/03/17 02:09:10;;;;;;;39.30;19.35;;;;;;;;;;4981440;28;20072;-84
2022/03/17 02:14:22;;;;;;;40.65;18.38;;;;;;;;;;5000858;28;20483;-84
2022/03/17 02:16:49;;;;;;;41.15;17.23;;;;;;;;;;4983640;28;20030;-83
2022/03/17 02:19:16;;;;;;;36.80;17.88;;;;;;;;;;5000630;28;20493;-83
2022/03/17 02:21:44;;;;;;;42.38;19.42;;;;;;;;;;4992708;28;20469;-83
2022/03/17 02:26:57;;;;;;;41.40;18.73;;;;;;;;;;5003290;28;20397;-83
2022/03/17 02:29:23;;;;;;;35.72;18.30;;;;;;;;;;4981186;28;20092;-84
2022/03/17 02:31:50;;;;;;;42.28;18.77;;;;;;;;;;4980178;28;20489;-84
2022/03/17 02:34:19;;;;;;;39.40;19.38;;;;;;;;;;4995813;28;20061;-83
2022/03/17 02:36:49;;;;;;;36.28;18.77;;;;;;;;;;4993362;28;20026;-84
2022/03/17 02:39:16;;;;;;;37.88;18.27;;;;;;;;;;4994512;28;20056;-83
2022/03/17 02:41:42;;;;;;;41.85;19.45;;;;;;;;;;4983651;28;20113;-83
2022/03/17 02:44:09;;;;;;;41.63;20.38;;;;;;;;;;4989512;28;20033;-83
2022/03/17 02:46:41;;;;;;;36.42;16.67;;;;;;;;;;4981313;28;20142;-84
2022/03/17 02:49:15;;;;;;;41.72;19.65;;;;;;;;;;4978309;28;20177;-84
2022/03/17 02:51:42;;;;;;;43.72;19.58;;;;;;;;;;4965148;28;20037;-84
2022/03/17 02:54:08;;;;;;;30.83;15.70;;;;;;;;;;4976081;28;20057;-84
2022/03/17 02:56:34;;;;;;;30.25;10.80;;;;;;;;;;4965149;28;20057;-83
2022/03/17 02:59:00;;;;;;;39.05;18.42;;;;;;;;;;4974601;28;20061;-84
2022/03/17 03:01:26;;;;;;;32.03;15.25;;;;;;;;;;4980910;28;20041;-83
2022/03/17 03:03:53;;;;;;;40.47;18.48;;;;;;;;;;4976205;28;20039;-84
2022/03/17 03:06:19;;;;;;;43.20;19.73;;;;;;;;;;4983491;28;20058;-84
2022/03/17 03:08:47;;;;;;;31.05;16.92;;;;;;;;;;4976320;28;20038;-83
2022/03/17 03:11:14;;;;;;;39.75;17.83;;;;;;;;;;4961201;28;20074;-84
2022/03/17 03:13:40;;;;;;;41.35;18.13;;;;;;;;;;4978601;28;20453;-84
2022/03/17 03:16:06;;;;;;;44.05;19.42;;;;;;;;;;4964176;28;20031;-84
2022/03/17 03:18:32;;;;;;;38.60;18.52;;;;;;;;;;4977694;28;20035;-84
2022/03/17 03:20:58;;;;;;;41.40;19.85;;;;;;;;;;4965632;28;20038;-84
2022/03/17 03:23:24;;;;;;;43.17;18.77;;;;;;;;;;4981659;28;20027;-84
2022/03/17 03:25:51;;;;;;;39.70;16.40;;;;;;;;;;4978714;28;20038;-84
2022/03/17 03:28:17;;;;;;;42.33;20.20;;;;;;;;;;4967031;28;20045;-84
2022/03/17 03:30:43;;;;;;;42.05;19.67;;;;;;;;;;4977310;28;20093;-84
2022/03/17 03:33:09;;;;;;;36.60;19.02;;;;;;;;;;4975252;28;20034;-84
2022/03/17 03:38:21;;;;;;;36.47;19.08;;;;;;;;;;4979935;28;20131;-84
2022/03/17 03:40:47;;;;;;;41.53;19.00;;;;;;;;;;4962872;28;20038;-83
2022/03/17 03:43:13;;;;;;;42.63;19.02;;;;;;;;;;4976506;28;20033;-84
2022/03/17 03:45:39;;;;;;;40.72;19.77;;;;;;;;;;4965282;28;20038;-84
2022/03/17 03:48:05;;;;;;;43.42;19.45;;;;;;;;;;4969562;28;20082;-84
2022/03/17 03:50:32;;;;;;;38.20;17.40;;;;;;;;;;4984277;28;20061;-84
2022/03/17 03:52:58;;;;;;;44.28;18.92;;;;;;;;;;5002072;28;20041;-84
2022/03/17 03:55:24;;;;;;;39.85;18.92;;;;;;;;;;4994667;28;20041;-83
2022/03/17 03:57:51;;;;;;;36.97;18.10;;;;;;;;;;5000927;28;20041;-84
2022/03/17 04:02:55;;;;;;;33.53;15.02;;;;;;;;;;5002304;28;20034;-84
2022/03/17 04:05:55;;;;;;;39.28;19.77;;;;;;;;;;4987597;28;20133;-84
2022/03/17 04:08:14;;;;;;;40.78;20.27;;;;;;;;;;4996047;28;20733;-84
2022/03/17 04:10:40;;;;;;;22.52;11.73;;;;;;;;;;4986637;28;20147;-84
2022/03/17 04:13:06;;;;;;;35.65;16.98;;;;;;;;;;4989799;28;20493;-84
2022/03/17 04:15:32;;;;;;;42.97;22.13;;;;;;;;;;4986646;28;20066;-84
2022/03/17 04:17:58;;;;;;;30.55;13.32;;;;;;;;;;4988899;28;20045;-84
2022/03/17 04:20:25;;;;;;;44.33;21.20;;;;;;;;;;5001947;28;20026;-83
2022/03/17 04:22:51;;;;;;;39.35;17.75;;;;;;;;;;5004701;28;20097;-84
2022/03/17 04:25:17;;;;;;;42.28;19.35;;;;;;;;;;5000693;28;20151;-84
2022/03/17 04:27:43;;;;;;;48.10;25.27;;;;;;;;;;4995971;28;20038;-84
2022/03/17 04:30:09;;;;;;;53.63;25.88;;;;;;;;;;5000488;28;20044;-84
2022/03/17 04:32:35;;;;;;;46.67;22.02;;;;;;;;;;5003688;28;20044;-84
2022/03/17 04:35:01;;;;;;;44.03;22.25;;;;;;;;;;5004114;28;20415;-84
2022/03/17 04:37:27;;;;;;;36.85;14.35;;;;;;;;;;4982160;28;20117;-84
2022/03/17 04:39:54;;;;;;;45.97;22.85;;;;;;;;;;5002177;28;20477;-84
2022/03/17 04:42:21;;;;;;;37.17;15.43;;;;;;;;;;4987063;28;20045;-84
2022/03/17 04:44:48;;;;;;;56.22;26.17;;;;;;;;;;4987306;28;20153;-84
2022/03/17 04:47:15;;;;;;;44.15;17.85;;;;;;;;;;4984271;28;20026;-84
2022/03/17 04:49:42;;;;;;;42.88;18.08;;;;;;;;;;4994621;28;20034;-84
2022/03/17 04:54:53;;;;;;;36.08;14.82;;;;;;;;;;5000357;28;20070;-83
2022/03/17 04:57:20;;;;;;;50.97;22.08;;;;;;;;;;5000298;28;20592;-83
2022/03/17 04:59:46;;;;;;;61.63;27.30;;;;;;;;;;5003186;28;20057;-83
2022/03/17 05:02:13;;;;;;;29.05;14.30;;;;;;;;;;4983931;28;20034;-82
2022/03/17 05:04:39;;;;;;;44.15;21.17;;;;;;;;;;5000338;28;20018;-83
2022/03/17 05:07:05;;;;;;;43.45;17.50;;;;;;;;;;4987787;28;20060;-83
2022/03/17 05:09:31;;;;;;;57.38;23.30;;;;;;;;;;4999529;28;20036;-83
2022/03/17 05:11:57;;;;;;;46.17;20.98;;;;;;;;;;4983937;28;20030;-82
2022/03/17 05:14:24;;;;;;;62.13;27.20;;;;;;;;;;5000422;28;20080;-82
2022/03/17 05:16:50;;;;;;;47.45;21.60;;;;;;;;;;4984506;28;20030;-82
2022/03/17 05:19:16;;;;;;;57.50;25.33;;;;;;;;;;4998774;28;20045;-83
2022/03/17 05:21:42;;;;;;;40.05;16.67;;;;;;;;;;5002333;28;20398;-83
2022/03/17 05:24:08;;;;;;;43.58;15.05;;;;;;;;;;4989531;28;20034;-83
2022/03/17 05:26:34;;;;;;;37.13;15.95;;;;;;;;;;4982747;28;20041;-83
2022/03/17 05:29:00;;;;;;;26.40;11.05;;;;;;;;;;4998802;28;20038;-83
2022/03/17 05:31:26;;;;;;;16.90;7.95;;;;;;;;;;4986163;28;20057;-83
2022/03/17 05:33:52;;;;;;;8.60;4.63;;;;;;;;;;4992702;28;20196;-83
2022/03/17 05:36:18;;;;;;;7.72;4.10;;;;;;;;;;4999164;28;20514;-83
2022/03/17 05:38:44;;;;;;;11.00;5.47;;;;;;;;;;4983820;28;20593;-83
2022/03/17 05:41:10;;;;;;;8.50;4.38;;;;;;;;;;4999903;28;20030;-83
2022/03/17 05:43:37;;;;;;;6.88;2.92;;;;;;;;;;4988690;28;20034;-83
2022/03/17 05:46:03;;;;;;;13.52;5.22;;;;;;;;;;4984574;28;20030;-83
2022/03/17 05:48:29;;;;;;;15.07;7.20;;;;;;;;;;4985686;28;20124;-83
2022/03/17 05:50:55;;;;;;;10.95;5.57;;;;;;;;;;4981822;28;20049;-83
2022/03/17 05:53:21;;;;;;;10.05;5.40;;;;;;;;;;4983748;28;20061;-83
2022/03/17 05:55:47;;;;;;;13.13;6.93;;;;;;;;;;4989313;28;20185;-83
2022/03/17 05:58:13;;;;;;;17.02;7.75;;;;;;;;;;4986643;28;20087;-83
2022/03/17 06:00:43;;;;;;;23.70;7.78;;;;;;;;;;4986746;28;20786;-82
2022/03/17 06:03:09;;;;;;;33.35;10.98;;;;;;;;;;4983056;28;20042;-82
2022/03/17 06:05:35;;;;;;;28.00;10.98;;;;;;;;;;4985112;28;20030;-82
2022/03/17 06:08:01;;;;;;;28.95;9.68;;;;;;;;;;4993648;28;20046;-83
2022/03/17 06:10:29;;;;;;;39.30;11.88;;;;;;;;;;4985193;28;20029;-83
2022/03/17 06:12:55;;;;;;;21.95;8.25;;;;;;;;;;4995914;28;20026;-82
2022/03/17 06:15:23;;;;;;;22.00;7.78;;;;;;;;;;4985169;28;20029;-83
2022/03/17 06:17:50;;;;;;;25.83;7.95;;;;;;;;;;4985434;28;20121;-83
2022/03/17 06:20:18;;;;;;;32.42;8.15;;;;;;;;;;4997863;28;20030;-83
2022/03/17 06:22:45;;;;;;;22.90;6.65;;;;;;;;;;4988663;28;20022;-83
2022/03/17 06:25:13;;;;;;;18.30;6.97;;;;;;;;;;4981313;28;20060;-83
2022/03/17 06:27:41;;;;;;;9.98;4.15;;;;;;;;;;4985620;28;20045;-83
2022/03/17 06:30:08;;;;;;;18.00;5.10;;;;;;;;;;4996166;28;20030;-83
2022/03/17 06:32:34;;;;;;;32.47;8.13;;;;;;;;;;4997837;28;20050;-83
2022/03/17 06:35:00;;;;;;;17.35;5.57;;;;;;;;;;4999821;28;20033;-83
2022/03/17 06:37:26;;;;;;;16.75;6.03;;;;;;;;;;4982617;28;20501;-83
2022/03/17 06:39:53;;;;;;;18.88;6.25;;;;;;;;;;5002937;28;20497;-83
2022/03/17 06:42:20;;;;;;;23.90;5.82;;;;;;;;;;4991934;28;20521;-83
2022/03/17 06:44:47;;;;;;;20.88;6.13;;;;;;;;;;4983827;28;20473;-83
2022/03/17 06:47:16;;;;;;;24.48;6.88;;;;;;;;;;4998152;28;20086;-83
2022/03/17 06:49:42;;;;;;;10.13;3.47;;;;;;;;;;4997825;28;20089;-82
2022/03/17 06:52:08;;;;;;;7.82;3.67;;;;;;;;;;4995105;28;20030;-83
2022/03/17 06:54:34;;;;;;;12.43;4.13;;;;;;;;;;4995623;28;20558;-83
2022/03/17 06:57:00;;;;;;;14.00;3.53;;;;;;;;;;4980102;28;20335;-83
2022/03/17 06:59:26;;;;;;;17.80;3.88;;;;;;;;;;4981038;28;20166;-83
2022/03/17 07:01:52;;;;;;;9.20;3.90;;;;;;;;;;4980416;28;20026;-83
2022/03/17 07:04:18;;;;;;;10.93;2.28;;;;;;;;;;4981359;28;20453;-83
2022/03/17 07:06:44;;;;;;;11.52;3.30;;;;;;;;;;4983988;28;20409;-82
2022/03/17 07:09:10;;;;;;;6.90;2.00;;;;;;;;;;4999359;28;20026;-83
2022/03/17 07:11:37;;;;;;;11.38;2.10;;;;;;;;;;4995698;28;20495;-83
2022/03/17 07:14:03;;;;;;;5.47;2.63;;;;;;;;;;4986581;28;20021;-83
2022/03/17 07:16:31;;;;;;;4.88;2.35;;;;;;;;;;4983348;28;20419;-83
2022/03/17 07:18:58;;;;;;;11.98;2.70;;;;;;;;;;4989377;28;20856;-83
2022/03/17 07:21:24;;;;;;;12.38;2.25;;;;;;;;;;4993502;28;20410;-83
2022/03/17 07:23:50;;;;;;;11.13;2.47;;;;;;;;;;4984416;28;20611;-82
2022/03/17 07:26:16;;;;;;;9.30;2.03;;;;;;;;;;4995853;28;20136;-83
2022/03/17 07:28:44;;;;;;;7.38;1.83;;;;;;;;;;4982893;28;20038;-83
2022/03/17 07:31:10;;;;;;;11.90;2.30;;;;;;;;;;4982230;28;20022;-83
2022/03/17 07:33:37;;;;;;;11.07;3.45;;;;;;;;;;4983971;28;20046;-83
2022/03/17 07:36:04;;;;;;;18.55;2.35;;;;;;;;;;4991939;28;20026;-82
2022/03/17 07:38:30;;;;;;;14.65;2.75;;;;;;;;;;4995480;28;20034;-83
2022/03/17 07:40:56;;;;;;;6.72;1.85;;;;;;;;;;4997907;28;20045;-82
2022/03/17 07:43:23;;;;;;;8.25;2.03;;;;;;;;;;4995390;28;20049;-83
2022/03/17 07:45:49;;;;;;;14.13;2.22;;;;;;;;;;4998057;28;20034;-82
2022/03/17 07:48:16;;;;;;;14.23;2.90;;;;;;;;;;4999693;28;20418;-83
2022/03/17 07:50:42;;;;;;;13.77;2.30;;;;;;;;;;4997728;28;20057;-83
2022/03/17 07:53:08;;;;;;;5.70;1.42;;;;;;;;;;4995725;28;20100;-82
2022/03/17 07:55:36;;;;;;;6.95;1.40;;;;;;;;;;5000119;28;20018;-82
2022/03/17 07:58:02;;;;;;;8.93;2.13;;;;;;;;;;4998745;28;20034;-83
2022/03/17 08:00:28;;;;;;;9.60;1.45;;;;;;;;;;4979314;28;20061;-83
2022/03/17 08:02:54;;;;;;;13.98;2.13;;;;;;;;;;4992408;28;20564;-82
2022/03/17 08:05:20;;;;;;;11.27;1.98;;;;;;;;;;4989669;28;20037;-82
2022/03/17 08:07:53;;;;;;;10.05;2.00;;;;;;;;;;5007012;28;20532;-83
2022/03/17 08:10:19;;;;;;;11.43;1.75;;;;;;;;;;5000769;28;20176;-83
2022/03/17 08:12:46;;;;;;;11.57;1.90;;;;;;;;;;4986206;28;20129;-83
2022/03/17 08:15:13;;;;;;;15.32;1.65;;;;;;;;;;5006277;28;20057;-83
2022/03/17 08:17:39;;;;;;;7.78;1.73;;;;;;;;;;4980843;28;20042;-82
2022/03/17 08:20:05;;;;;;;12.50;1.33;;;;;;;;;;4987215;28;20061;-83
2022/03/17 08:22:31;;;;;;;21.02;2.53;;;;;;;;;;4986133;28;20053;-83
2022/03/17 08:25:01;;;;;;;15.02;2.20;;;;;;;;;;5000974;28;20489;-83
2022/03/17 08:27:27;;;;;;;7.78;2.80;;;;;;;;;;4988646;28;20033;-83
2022/03/17 08:29:53;;;;;;;4.03;0.90;;;;;;;;;;4983495;28;20033;-83
2022/03/17 08:32:19;;;;;;;15.70;3.05;;;;;;;;;;5002689;28;20018;-82
2022/03/17 08:34:45;;;;;;;20.17;2.38;;;;;;;;;;4981895;28;20433;-83
2022/03/17 08:37:11;;;;;;;9.88;1.73;;;;;;;;;;5003517;28;20032;-83
2022/03/17 08:39:37;;;;;;;19.83;2.13;;;;;;;;;;5002496;28;20121;-83
2022/03/17 08:42:03;;;;;;;16.40;2.42;;;;;;;;;;4984916;28;20045;-83
2022/03/17 08:44:30;;;;;;;12.18;1.23;;;;;;;;;;4998083;28;20037;-83
2022/03/17 08:49:47;;;;;;;6.63;1.40;;;;;;;;;;5004057;28;20315;-83
2022/03/17 08:52:13;;;;;;;13.90;2.53;;;;;;;;;;5003730;28;20041;-83
2022/03/17 08:54:42;;;;;;;5.38;1.23;;;;;;;;;;4982821;28;20026;-82
2022/03/17 08:57:08;;;;;;;24.15;2.22;;;;;;;;;;4986275;28;20026;-83
2022/03/17 08:59:36;;;;;;;25.00;1.95;;;;;;;;;;4983348;28;20026;-83
2022/03/17 09:02:05;;;;;;;13.93;1.88;;;;;;;;;;5001507;28;20037;-83
2022/03/17 09:04:31;;;;;;;5.25;0.98;;;;;;;;;;4999434;28;20038;-83
2022/03/17 09:07:01;;;;;;;9.02;2.40;;;;;;;;;;4985301;28;20049;-82
2022/03/17 09:09:28;;;;;;;7.82;1.35;;;;;;;;;;5001732;28;20026;-82
2022/03/17 09:11:54;;;;;;;4.30;1.33;;;;;;;;;;4990007;28;20041;-82
2022/03/17 09:14:21;;;;;;;8.48;1.80;;;;;;;;;;4984736;28;20047;-82
2022/03/17 09:16:47;;;;;;;21.17;1.90;;;;;;;;;;4987381;28;20030;-82
2022/03/17 09:19:13;;;;;;;24.15;2.42;;;;;;;;;;4984729;28;20064;-82
2022/03/17 09:21:39;;;;;;;13.40;1.77;;;;;;;;;;4978927;28;20046;-82
2022/03/17 09:24:06;;;;;;;11.82;1.58;;;;;;;;;;4984760;28;20034;-82
2022/03/17 09:26:32;;;;;;;12.50;2.05;;;;;;;;;;4990209;28;20912;-82
2022/03/17 09:28:59;;;;;;;10.55;1.73;;;;;;;;;;4983225;28;20038;-82
2022/03/17 09:31:25;;;;;;;8.85;2.53;;;;;;;;;;4998850;28;20060;-82
2022/03/17 09:33:51;;;;;;;14.00;2.47;;;;;;;;;;5001288;28;20105;-81
2022/03/17 09:36:17;;;;;;;11.80;2.72;;;;;;;;;;4984610;28;20623;-82
2022/03/17 09:38:44;;;;;;;4.80;1.33;;;;;;;;;;4986050;28;20043;-82
2022/03/17 09:41:32;;;;;;;13.90;1.52;;;;;;;;;;4999620;28;20061;-82
2022/03/17 09:43:58;;;;;;;6.55;1.58;;;;;;;;;;4996424;28;20032;-82
2022/03/17 09:46:26;;;;;;;11.38;1.70;;;;;;;;;;4986108;28;20037;-82
2022/03/17 09:48:55;;;;;;;10.13;1.77;;;;;;;;;;5000663;28;20049;-82
2022/03/17 09:51:23;;;;;;;7.50;0.95;;;;;;;;;;5002584;28;20101;-82
2022/03/17 09:53:52;;;;;;;8.35;1.08;;;;;;;;;;4977322;28;20033;-82
2022/03/17 09:56:25;;;;;;;13.68;1.88;;;;;;;;;;4988687;28;20493;-82
2022/03/17 09:58:51;;;;;;;20.08;1.98;;;;;;;;;;4980194;28;20025;-82
2022/03/17 10:01:19;;;;;;;11.13;1.75;;;;;;;;;;5003602;28;20419;-82
2022/03/17 10:03:45;;;;;;;6.90;1.33;;;;;;;;;;4996370;28;20457;-82
2022/03/17 10:06:14;;;;;;;16.60;1.85;;;;;;;;;;4982190;28;20088;-82
2022/03/17 10:08:41;;;;;;;8.38;1.60;;;;;;;;;;5001417;28;20647;-82
2022/03/17 10:11:07;;;;;;;12.90;1.40;;;;;;;;;;4982540;28;20033;-82
2022/03/17 10:13:39;;;;;;;21.42;2.00;;;;;;;;;;4984161;28;20029;-82
2022/03/17 10:16:05;;;;;;;11.73;2.45;;;;;;;;;;4984162;28;20022;-82
2022/03/17 10:18:36;;;;;;;23.77;2.85;;;;;;;;;;4986207;28;20037;-82
2022/03/17 10:21:05;;;;;;;3.90;1.60;;;;;;;;;;5004292;28;20060;-82
2022/03/17 10:23:31;;;;;;;9.15;1.50;;;;;;;;;;5001311;28;20397;-82
2022/03/17 10:25:57;;;;;;;23.02;2.10;;;;;;;;;;4999648;28;20609;-82
2022/03/17 10:28:26;;;;;;;11.98;1.52;;;;;;;;;;4987506;28;20057;-82
2022/03/17 10:31:03;;;;;;;11.65;2.35;;;;;;;;;;4986820;28;20376;-82
2022/03/17 10:33:29;;;;;;;11.35;1.63;;;;;;;;;;4989176;28;20504;-82
2022/03/17 10:36:12;;;;;;;13.25;2.13;;;;;;;;;;4999264;28;20030;-82
2022/03/17 10:38:42;;;;;;;8.88;2.80;;;;;;;;;;5000354;28;20029;-81
2022/03/17 10:41:12;;;;;;;20.33;2.63;;;;;;;;;;4984521;28;20572;-82
2022/03/17 10:43:42;;;;;;;10.88;3.35;;;;;;;;;;4996691;28;20030;-82
2022/03/17 10:46:20;;;;;;;9.98;2.90;;;;;;;;;;4993423;28;20093;-82
2022/03/17 10:49:02;;;;;;;23.70;3.45;;;;;;;;;;4983549;28;20069;-82
2022/03/17 10:51:37;;;;;;;11.38;2.70;;;;;;;;;;4962510;28;20049;-82
2022/03/17 10:54:18;;;;;;;15.10;2.40;;;;;;;;;;4969300;28;20442;-82
2022/03/17 10:56:57;;;;;;;4.00;1.08;;;;;;;;;;4971307;28;20031;-82
2022/03/17 10:59:24;;;;;;;11.70;2.55;;;;;;;;;;4968925;28;20034;-82
2022/03/17 11:01:50;;;;;;;13.80;2.20;;;;;;;;;;4976615;28;20030;-82
2022/03/17 11:04:16;;;;;;;17.90;2.40;;;;;;;;;;4973852;28;20057;-82
2022/03/17 11:06:42;;;;;;;10.38;2.63;;;;;;;;;;4961354;28;20030;-82
2022/03/17 11:09:08;;;;;;;15.70;2.20;;;;;;;;;;4959519;28;20034;-82
2022/03/17 11:11:38;;;;;;;8.30;2.20;;;;;;;;;;4962501;28;20101;-82
2022/03/17 11:14:05;;;;;;;16.83;2.97;;;;;;;;;;4984078;28;20030;-82
2022/03/17 11:16:36;;;;;;;10.35;1.75;;;;;;;;;;4963760;28;20038;-83
2022/03/17 11:19:03;;;;;;;15.23;2.53;;;;;;;;;;4978930;28;20117;-82
2022/03/17 11:21:31;;;;;;;9.55;2.70;;;;;;;;;;4964870;28;20057;-83
2022/03/17 11:23:59;;;;;;;6.45;1.45;;;;;;;;;;4977695;28;20030;-83
2022/03/17 11:26:37;;;;;;;11.02;2.63;;;;;;;;;;4972707;28;20125;-83
2022/03/17 11:29:08;;;;;;;13.82;2.70;;;;;;;;;;4975657;28;20498;-83
2022/03/17 11:31:50;;;;;;;11.60;2.53;;;;;;;;;;4961223;28;20086;-83
2022/03/17 11:34:39;;;;;;;16.15;2.53;;;;;;;;;;4980122;28;20730;-83
2022/03/17 11:37:21;;;;;;;7.28;1.65;;;;;;;;;;4980534;28;20058;-83
2022/03/17 11:39:55;;;;;;;14.10;2.88;;;;;;;;;;4956003;28;20368;-83
2022/03/17 11:42:36;;;;;;;17.55;3.50;;;;;;;;;;4964595;28;20117;-83
2022/03/17 11:45:08;;;;;;;17.92;2.67;;;;;;;;;;4958069;28;20042;-83
2022/03/17 11:47:36;;;;;;;7.80;1.85;;;;;;;;;;4962387;28;20030;-83
2022/03/17 11:50:29;;;;;;;9.05;1.92;;;;;;;;;;4986690;28;20061;-83
2022/03/17 11:53:03;;;;;;;14.45;2.70;;;;;;;;;;4989577;28;20038;-83
2022/03/17 11:55:37;;;;;;;7.38;2.33;;;;;;;;;;4976203;28;20030;-83
2022/03/17 11:58:15;;;;;;;15.68;2.35;;;;;;;;;;4977922;28;20084;-83
2022/03/17 12:00:48;;;;;;;5.90;1.40;;;;;;;;;;4990776;28;20240;-83
2022/03/17 12:03:25;;;;;;;11.25;2.13;;;;;;;;;;4975901;28;20085;-83
2022/03/17 12:06:12;;;;;;;11.77;2.25;;;;;;;;;;4992707;28;20473;-83
2022/03/17 12:08:43;;;;;;;10.77;2.22;;;;;;;;;;4992556;28;20046;-83
2022/03/17 12:11:14;;;;;;;10.48;2.30;;;;;;;;;;4980220;28;20481;-83
2022/03/17 12:13:41;;;;;;;10.98;2.25;;;;;;;;;;4978896;28;20529;-81
2022/03/17 12:16:08;;;;;;;12.82;2.55;;;;;;;;;;4993366;28;20065;-81
2022/03/17 12:18:54;;;;;;;11.80;2.08;;;;;;;;;;4977796;28;20049;-81
2022/03/17 12:21:20;;;;;;;;;;;;;;;;;;4981051;28;20487;-81
2022/03/17 12:23:47;;;;;;;10.32;2.05;;;;;;;;;;5000136;28;19917;-81
2022/03/17 12:26:13;;;;;;;13.23;2.20;;;;;;;;;;4981415;28;20068;-81
2022/03/17 12:28:44;;;;;;;9.88;2.00;;;;;;;;;;4983030;28;20042;-81
2022/03/17 12:31:10;;;;;;;8.43;3.15;;;;;;;;;;4987573;28;20469;-81
2022/03/17 12:33:39;;;;;;;10.88;2.72;;;;;;;;;;4986379;28;20321;-81
2022/03/17 12:36:06;;;;;;;14.50;2.45;;;;;;;;;;4985756;28;20041;-81
2022/03/17 12:38:34;;;;;;;8.32;2.45;;;;;;;;;;4984845;28;20026;-81
2022/03/17 12:41:00;;;;;;;5.53;1.90;;;;;;;;;;5002621;28;20030;-82
2022/03/17 12:43:27;;;;;;;8.35;2.10;;;;;;;;;;4987812;28;20985;-82
2022/03/17 12:45:53;;;;;;;7.35;1.60;;;;;;;;;;4999630;28;20038;-82
2022/03/17 12:48:20;;;;;;;7.55;1.77;;;;;;;;;;4999376;28;20040;-81
2022/03/17 12:50:47;;;;;;;9.55;1.70;;;;;;;;;;4989809;28;20565;-82
2022/03/17 12:53:14;;;;;;;4.78;1.77;;;;;;;;;;5005442;28;20462;-82
2022/03/17 12:55:40;;;;;;;6.45;1.75;;;;;;;;;;4996997;28;20567;-82
2022/03/17 12:58:06;;;;;;;10.25;3.15;;;;;;;;;;5001451;28;20129;-82
2022/03/17 13:00:33;;;;;;;9.65;1.95;;;;;;;;;;5005267;28;20041;-82
2022/03/17 13:03:00;;;;;;;10.32;2.70;;;;;;;;;;4997319;28;20148;-82
2022/03/17 13:08:12;;;;;;;17.13;2.83;;;;;;;;;;4998551;28;20043;-82
2022/03/17 13:16:13;;;;;;;12.30;2.28;;;;;;;;;;4995144;28;20080;-82
2022/03/17 13:18:43;;;;;;;10.63;3.30;;;;;;;;;;4981936;28;20118;-82
2022/03/17 13:21:12;;;;;;;12.05;2.55;;;;;;;;;;4998020;28;20053;-82
2022/03/17 13:23:38;;;;;;;10.98;2.22;;;;;;;;;;4983730;28;20554;-82
2022/03/17 13:26:04;;;;;;;9.65;1.85;;;;;;;;;;4984309;28;20145;-82
2022/03/17 13:28:30;;;;;;;8.15;2.40;;;;;;;;;;4998373;28;20038;-82
2022/03/17 13:30:56;;;;;;;5.88;2.03;;;;;;;;;;4981165;28;20876;-82
2022/03/17 13:33:40;;;;;;;7.60;2.38;;;;;;;;;;4977486;28;20762;-82
2022/03/17 13:36:06;;;;;;;6.35;1.67;;;;;;;;;;4980704;28;20079;-82
2022/03/17 13:38:34;;;;;;;11.90;2.00;;;;;;;;;;4980873;28;20042;-82
2022/03/17 13:41:00;;;;;;;10.07;2.03;;;;;;;;;;4986472;28;20486;-82
2022/03/17 13:43:27;;;;;;;8.52;2.20;;;;;;;;;;4981851;28;20033;-82
2022/03/17 13:45:53;;;;;;;8.50;2.33;;;;;;;;;;4998844;28;20093;-82
2022/03/17 13:48:27;;;;;;;8.88;2.33;;;;;;;;;;4974274;28;20517;-82
2022/03/17 13:51:01;;;;;;;9.02;1.88;;;;;;;;;;4993014;28;20045;-82
2022/03/17 13:53:27;;;;;;;9.23;1.85;;;;;;;;;;4979315;28;20034;-82
2022/03/17 13:55:54;;;;;;;6.15;1.38;;;;;;;;;;4978525;28;20092;-82
2022/03/17 13:58:20;;;;;;;10.85;1.70;;;;;;;;;;5003016;28;20034;-82
2022/03/17 14:00:51;;;;;;;5.40;2.00;;;;;;;;;;4989765;28;20498;-82
2022/03/17 14:03:23;;;;;;;12.05;1.50;;;;;;;;;;4999416;28;20429;-82
2022/03/17 14:05:59;;;;;;;10.15;2.03;;;;;;;;;;4988805;28;20489;-82
2022/03/17 14:08:25;;;;;;;6.93;1.85;;;;;;;;;;5001569;28;20057;-82
2022/03/17 14:10:51;;;;;;;10.73;2.15;;;;;;;;;;4984843;28;20557;-83
2022/03/17 14:13:18;;;;;;;6.63;1.67;;;;;;;;;;4979860;28;20038;-83
2022/03/17 14:15:45;;;;;;;9.27;1.80;;;;;;;;;;4981631;28;20177;-82
2022/03/17 14:18:11;;;;;;;7.28;1.73;;;;;;;;;;4995990;28;20041;-82
2022/03/17 14:20:37;;;;;;;7.57;1.90;;;;;;;;;;4998613;28;20034;-82
2022/03/17 14:25:50;;;;;;;6.65;1.65;;;;;;;;;;5000758;28;20072;-82
2022/03/17 14:28:16;;;;;;;9.32;1.58;;;;;;;;;;4994015;28;20556;-82
2022/03/17 14:30:42;;;;;;;7.75;2.00;;;;;;;;;;4994213;28;20021;-82
2022/03/17 14:33:08;;;;;;;13.40;1.95;;;;;;;;;;4997761;28;20038;-82
2022/03/17 14:35:35;;;;;;;12.23;1.55;;;;;;;;;;4997902;28;20473;-82
2022/03/17 14:38:03;;;;;;;5.88;1.80;;;;;;;;;;4977831;28;20029;-82
2022/03/17 14:40:29;;;;;;;8.20;1.65;;;;;;;;;;4982089;28;20058;-82
2022/03/17 14:42:57;;;;;;;9.00;1.65;;;;;;;;;;4980731;28;20460;-82
2022/03/17 14:45:24;;;;;;;6.95;1.77;;;;;;;;;;4979497;28;20026;-82
2022/03/17 14:47:50;;;;;;;4.68;1.35;;;;;;;;;;4983475;28;20145;-82
2022/03/17 14:50:17;;;;;;;4.60;1.42;;;;;;;;;;4995238;28;20049;-82
2022/03/17 14:52:47;;;;;;;13.55;3.03;;;;;;;;;;5001633;28;20462;-82
2022/03/17 14:55:14;;;;;;;7.68;2.42;;;;;;;;;;4980738;28;20035;-83
2022/03/17 14:57:41;;;;;;;10.00;2.20;;;;;;;;;;4982898;28;20554;-82
2022/03/17 15:00:07;;;;;;;8.90;1.98;;;;;;;;;;4983513;28;20084;-83
2022/03/17 15:02:36;;;;;;;6.38;1.88;;;;;;;;;;4983393;28;20069;-82